createdAt,value
2023-03-05T00:01:38.178Z,5.20
2023-03-05T00:04:07.503Z,5.20
2023-03-05T00:06:34.437Z,5.10
2023-03-05T00:09:04.763Z,5.10
2023-03-05T00:11:36.963Z,5.10
2023-03-05T00:14:04.747Z,5.10
2023-03-05T00:16:32.004Z,5.10
2023-03-05T00:19:00.042Z,5.10
2023-03-05T00:21:33.111Z,5.10
2023-03-05T00:24:04.365Z,5.10
2023-03-05T00:26:34.369Z,5.10
2023-03-05T00:29:01.040Z,5.10
2023-03-05T00:31:30.648Z,5.10
2023-03-05T00:34:02.895Z,5.10
2023-03-05T00:36:32.448Z,5.10
2023-03-05T00:38:59.524Z,5.10
2023-03-05T00:41:28.920Z,5.10
2023-03-05T00:43:55.817Z,5.10
2023-03-05T00:46:27.218Z,5.10
2023-03-05T00:48:54.867Z,5.10
2023-03-05T00:51:24.916Z,5.10
2023-03-05T00:53:51.984Z,5.10
2023-03-05T00:56:18.746Z,5.10
2023-03-05T00:58:50.066Z,5.10
2023-03-05T01:01:17.039Z,5.10
2023-03-05T01:03:45.833Z,5.00
2023-03-05T01:06:15.125Z,5.10
2023-03-05T01:08:43.125Z,5.10
2023-03-05T01:11:12.309Z,5.00
2023-03-05T01:13:41.562Z,5.00
2023-03-05T01:16:13.553Z,5.00
2023-03-05T01:18:42.722Z,5.00
2023-03-05T01:21:10.216Z,5.10
2023-03-05T01:23:37.397Z,5.00
2023-03-05T01:26:04.454Z,5.00
2023-03-05T01:28:33.307Z,5.00
2023-03-05T01:31:05.188Z,5.10
2023-03-05T01:33:31.821Z,5.00
2023-03-05T01:35:58.560Z,5.00
2023-03-05T01:38:25.253Z,5.00
2023-03-05T01:40:51.905Z,5.00
2023-03-05T01:43:27.914Z,4.90
2023-03-05T01:46:13.192Z,5.00
2023-03-05T01:48:44.147Z,5.00
2023-03-05T01:51:13.506Z,5.00
2023-03-05T01:53:40.394Z,5.00
2023-03-05T01:56:09.752Z,5.00
2023-03-05T01:58:37.487Z,4.90
2023-03-05T02:01:09.495Z,5.00
2023-03-05T02:03:37.566Z,5.00
2023-03-05T02:06:04.496Z,4.90
2023-03-05T02:08:31.176Z,4.90
2023-03-05T02:11:03.093Z,4.90
2023-03-05T02:13:35.666Z,4.80
2023-03-05T02:16:05.349Z,4.80
2023-03-05T02:18:37.046Z,4.70
2023-03-05T02:21:09.380Z,4.70
2023-03-05T02:23:40.147Z,4.80
2023-03-05T02:26:12.777Z,4.80
2023-03-05T02:28:53.683Z,4.70
2023-03-05T02:31:24.192Z,4.70
2023-03-05T02:33:56.449Z,4.60
2023-03-05T02:36:23.864Z,4.60
2023-03-05T02:38:50.714Z,4.60
2023-03-05T02:41:22.207Z,4.60
2023-03-05T02:43:53.529Z,4.60
2023-03-05T02:46:20.242Z,4.60
2023-03-05T02:48:46.925Z,4.50
2023-03-05T02:51:13.967Z,4.60
2023-03-05T02:53:45.346Z,4.60
2023-03-05T02:56:14.169Z,4.70
2023-03-05T02:58:40.854Z,4.60
2023-03-05T03:01:12.172Z,4.50
2023-03-05T03:03:39.012Z,4.60
2023-03-05T03:06:06.203Z,4.60
2023-03-05T03:08:32.848Z,4.60
2023-03-05T03:11:12.542Z,4.60
2023-03-05T03:13:39.609Z,4.60
2023-03-05T03:16:12.784Z,4.50
2023-03-05T03:18:39.730Z,4.60
2023-03-05T03:21:07.287Z,4.60
2023-03-05T03:23:34.792Z,4.60
2023-03-05T03:26:03.817Z,4.70
2023-03-05T03:28:32.857Z,4.60
2023-03-05T03:30:59.543Z,4.70
2023-03-05T03:33:26.216Z,4.70
2023-03-05T03:35:55.025Z,4.60
2023-03-05T03:38:24.181Z,4.60
2023-03-05T03:40:50.848Z,4.60
2023-03-05T03:43:17.496Z,4.60
2023-03-05T03:45:44.807Z,4.60
2023-03-05T03:48:11.943Z,4.50
2023-03-05T03:50:42.367Z,4.50
2023-03-05T03:53:12.833Z,4.50
2023-03-05T03:55:42.841Z,4.50
2023-03-05T03:58:10.018Z,4.60
2023-03-05T04:00:39.728Z,4.60
2023-03-05T04:03:06.995Z,4.60
2023-03-05T04:05:35.754Z,4.60
2023-03-05T04:08:03.371Z,4.60
2023-03-05T04:10:30.179Z,4.60
2023-03-05T04:12:56.815Z,4.60
2023-03-05T04:15:26.543Z,4.50
2023-03-05T04:17:57.930Z,4.50
2023-03-05T04:20:24.771Z,4.50
2023-03-05T04:22:53.693Z,4.50
2023-03-05T04:25:20.331Z,4.40
2023-03-05T04:27:46.969Z,4.40
2023-03-05T04:30:16.772Z,4.50
2023-03-05T04:32:43.398Z,4.50
2023-03-05T04:35:10.977Z,4.50
2023-03-05T04:37:37.795Z,4.40
2023-03-05T04:40:05.230Z,4.50
2023-03-05T04:42:31.990Z,4.50
2023-03-05T04:44:58.627Z,4.50
2023-03-05T04:47:27.478Z,4.50
2023-03-05T04:49:54.112Z,4.40
2023-03-05T04:52:20.906Z,4.40
2023-03-05T04:54:47.593Z,4.50
2023-03-05T04:57:16.611Z,4.50
2023-03-05T04:59:45.576Z,4.50
2023-03-05T05:02:14.774Z,4.50
2023-03-05T05:04:44.932Z,4.60
2023-03-05T05:07:12.827Z,4.50
2023-03-05T05:09:41.701Z,4.40
2023-03-05T05:12:10.869Z,4.40
2023-03-05T05:14:37.879Z,4.50
2023-03-05T05:17:05.141Z,4.50
2023-03-05T05:19:35.516Z,4.50
2023-03-05T05:22:02.551Z,4.40
2023-03-05T05:24:29.247Z,4.40
2023-03-05T05:27:00.420Z,4.30
2023-03-05T05:29:27.083Z,4.40
2023-03-05T05:31:54.187Z,4.30
2023-03-05T05:34:25.292Z,4.40
2023-03-05T05:36:56.864Z,4.40
2023-03-05T05:39:23.543Z,4.40
2023-03-05T05:41:52.083Z,4.50
2023-03-05T05:44:18.754Z,4.40
2023-03-05T05:46:48.167Z,4.40
2023-03-05T05:49:14.873Z,4.30
2023-03-05T05:51:41.528Z,4.30
2023-03-05T05:54:08.212Z,4.40
2023-03-05T05:56:37.342Z,4.40
2023-03-05T05:59:04.033Z,4.30
2023-03-05T06:01:33.027Z,4.30
2023-03-05T06:04:00.134Z,4.30
2023-03-05T06:06:27.978Z,4.30
2023-03-05T06:08:57.691Z,4.40
2023-03-05T06:11:27.416Z,4.30
2023-03-05T06:13:54.083Z,4.30
2023-03-05T06:16:24.941Z,4.40
2023-03-05T06:18:52.422Z,4.30
2023-03-05T06:21:20.849Z,4.30
2023-03-05T06:23:48.774Z,4.30
2023-03-05T06:26:18.302Z,4.30
2023-03-05T06:28:45.173Z,4.40
2023-03-05T06:31:18.408Z,4.40
2023-03-05T06:33:45.371Z,4.40
2023-03-05T06:36:15.421Z,4.40
2023-03-05T06:38:42.766Z,4.50
2023-03-05T06:41:11.966Z,4.50
2023-03-05T06:43:41.056Z,4.40
2023-03-05T06:46:13.781Z,4.40
2023-03-05T06:48:40.901Z,4.40
2023-03-05T06:51:14.525Z,4.50
2023-03-05T06:53:49.045Z,4.60
2023-03-05T06:56:21.866Z,4.60
2023-03-05T06:58:52.054Z,4.60
2023-03-05T07:01:23.622Z,4.70
2023-03-05T07:03:59.518Z,4.70
2023-03-05T07:06:32.332Z,4.80
2023-03-05T07:09:02.174Z,4.80
2023-03-05T07:11:29.536Z,4.70
2023-03-05T07:13:56.219Z,4.80
2023-03-05T07:16:26.397Z,4.80
2023-03-05T07:18:53.803Z,4.90
2023-03-05T07:21:26.366Z,4.90
2023-03-05T07:23:56.704Z,4.90
2023-03-05T07:26:30.812Z,4.80
2023-03-05T07:28:57.543Z,4.70
2023-03-05T07:31:31.169Z,4.70
2023-03-05T07:34:01.502Z,4.70
2023-03-05T07:36:29.995Z,4.80
2023-03-05T07:38:56.882Z,4.80
2023-03-05T07:41:23.805Z,4.90
2023-03-05T07:43:57.981Z,4.90
2023-03-05T07:46:31.039Z,4.90
2023-03-05T07:49:00.460Z,4.90
2023-03-05T07:51:28.621Z,4.90
2023-03-05T07:53:58.476Z,4.90
2023-03-05T07:56:35.347Z,4.90
2023-03-05T07:59:09.628Z,5.00
2023-03-05T08:01:36.596Z,4.90
2023-03-05T08:04:05.082Z,5.00
2023-03-05T08:06:32.240Z,5.10
2023-03-05T08:09:01.572Z,5.10
2023-03-05T08:11:30.882Z,5.20
2023-03-05T08:13:59.334Z,5.30
2023-03-05T08:16:28.780Z,5.30
2023-03-05T08:18:57.355Z,5.30
2023-03-05T08:21:29.942Z,5.30
2023-03-05T08:23:57.698Z,5.40
2023-03-05T08:26:28.606Z,5.40
2023-03-05T08:28:58.378Z,5.50
2023-03-05T08:31:30.083Z,5.50
2023-03-05T08:33:58.293Z,5.50
2023-03-05T08:36:25.076Z,5.50
2023-03-05T08:38:51.794Z,5.50
2023-03-05T08:41:19.386Z,5.50
2023-03-05T08:43:48.158Z,5.40
2023-03-05T08:46:16.017Z,5.50
2023-03-05T08:48:43.266Z,5.50
2023-03-05T08:51:26.977Z,5.50
2023-03-05T08:53:56.148Z,5.60
2023-03-05T08:56:22.812Z,5.70
2023-03-05T08:58:52.965Z,5.80
2023-03-05T09:01:23.811Z,5.90
2023-03-05T09:03:50.929Z,5.90
2023-03-05T09:06:17.666Z,5.90
2023-03-05T09:08:44.317Z,5.90
2023-03-05T09:11:13.729Z,5.90
2023-03-05T09:13:42.891Z,5.90
2023-03-05T09:16:19.296Z,6.00
2023-03-05T09:18:48.182Z,6.20
2023-03-05T09:21:18.033Z,6.50
2023-03-05T09:23:47.065Z,6.60
2023-03-05T09:26:19.185Z,6.70
2023-03-05T09:28:48.650Z,7.00
2023-03-05T09:31:15.920Z,6.90
2023-03-05T09:33:42.590Z,6.90
2023-03-05T09:36:24.968Z,6.70
2023-03-05T09:38:52.382Z,6.90
2023-03-05T09:41:25.100Z,7.00
2023-03-05T09:44:10.303Z,6.80
2023-03-05T09:46:56.802Z,6.80
2023-03-05T09:49:41.533Z,6.80
2023-03-05T09:52:18.106Z,6.70
2023-03-05T09:54:48.975Z,6.60
2023-03-05T09:57:22.395Z,6.50
2023-03-05T09:59:54.354Z,6.40
2023-03-05T10:02:29.180Z,6.30
2023-03-05T10:05:21.217Z,6.20
2023-03-05T10:08:02.184Z,6.10
2023-03-05T10:10:56.218Z,6.10
2023-03-05T10:13:25.021Z,6.00
2023-03-05T10:15:56.651Z,6.00
2023-03-05T10:18:48.766Z,6.00
2023-03-05T10:21:35.666Z,6.00
2023-03-05T10:24:24.019Z,5.90
2023-03-05T10:27:03.452Z,5.80
2023-03-05T10:29:46.590Z,5.60
2023-03-05T10:32:40.321Z,5.70
2023-03-05T10:35:21.229Z,5.80
2023-03-05T10:38:25.657Z,5.90
2023-03-05T10:40:55.276Z,6.20
2023-03-05T10:43:55.487Z,6.00
2023-03-05T10:46:27.871Z,6.00
2023-03-05T10:49:14.370Z,6.00
2023-03-05T10:51:51.770Z,6.00
2023-03-05T10:54:33.375Z,5.90
2023-03-05T10:57:21.318Z,5.90
2023-03-05T10:59:58.554Z,5.90
2023-03-05T11:02:27.946Z,5.80
2023-03-05T11:04:54.882Z,5.90
2023-03-05T11:07:23.777Z,6.10
2023-03-05T11:10:05.591Z,6.40
2023-03-05T11:12:39.500Z,6.80
2023-03-05T11:15:14.373Z,7.10
2023-03-05T11:17:48.994Z,7.00
2023-03-05T11:20:28.030Z,6.90
2023-03-05T11:23:16.310Z,6.60
2023-03-05T11:25:51.548Z,6.40
2023-03-05T11:28:33.645Z,6.30
2023-03-05T11:31:15.622Z,6.10
2023-03-05T11:34:04.406Z,6.00
2023-03-05T11:36:37.006Z,5.80
2023-03-05T11:39:06.508Z,5.90
2023-03-05T11:41:58.763Z,5.90
2023-03-05T11:44:28.011Z,5.80
2023-03-05T11:47:13.657Z,5.90
2023-03-05T11:49:45.046Z,6.00
2023-03-05T11:52:20.916Z,6.30
2023-03-05T11:54:53.666Z,6.60
2023-03-05T11:57:23.481Z,6.50
2023-03-05T11:59:52.538Z,6.50
2023-03-05T12:02:25.011Z,6.40
2023-03-05T12:04:52.316Z,6.50
2023-03-05T12:07:39.334Z,6.50
2023-03-05T12:10:06.890Z,6.50
2023-03-05T12:12:40.895Z,6.70
2023-03-05T12:15:29.274Z,6.60
2023-03-05T12:18:19.373Z,6.50
2023-03-05T12:20:49.039Z,6.40
2023-03-05T12:23:22.964Z,6.50
2023-03-05T12:25:51.223Z,6.70
2023-03-05T12:28:58.171Z,6.80
2023-03-05T12:31:39.563Z,6.90
2023-03-05T12:34:39.476Z,7.10
2023-03-05T12:37:33.175Z,7.20
2023-03-05T12:40:08.970Z,7.40
2023-03-05T12:42:35.600Z,7.30
2023-03-05T12:45:24.931Z,7.40
2023-03-05T12:47:57.637Z,7.40
2023-03-05T12:50:27.111Z,7.30
2023-03-05T12:52:58.035Z,7.20
2023-03-05T12:55:27.516Z,7.10
2023-03-05T12:58:21.685Z,7.20
2023-03-05T13:01:23.702Z,7.20
2023-03-05T13:04:10.734Z,7.20
2023-03-05T13:06:39.308Z,7.30
2023-03-05T13:09:34.917Z,7.20
2023-03-05T13:12:04.153Z,7.20
2023-03-05T13:14:48.442Z,7.30
2023-03-05T13:17:33.386Z,7.10
2023-03-05T13:20:02.375Z,7.00
2023-03-05T13:22:29.137Z,6.90
2023-03-05T13:25:25.018Z,6.90
2023-03-05T13:27:51.746Z,6.80
2023-03-05T13:30:23.919Z,7.00
2023-03-05T13:32:57.913Z,7.00
2023-03-05T13:35:26.837Z,7.10
2023-03-05T13:37:53.687Z,7.10
2023-03-05T13:40:25.185Z,6.90
2023-03-05T13:42:56.789Z,7.00
2023-03-05T13:45:34.950Z,7.00
2023-03-05T13:48:04.431Z,6.90
2023-03-05T13:50:36.792Z,7.00
2023-03-05T13:53:29.636Z,6.90
2023-03-05T13:56:10.180Z,6.90
2023-03-05T13:58:52.412Z,6.80
2023-03-05T14:01:28.418Z,6.80
2023-03-05T14:04:03.595Z,6.70
2023-03-05T14:06:40.914Z,6.70
2023-03-05T14:09:19.204Z,6.70
2023-03-05T14:11:56.256Z,6.70
2023-03-05T14:14:26.507Z,6.50
2023-03-05T14:16:56.052Z,6.40
2023-03-05T14:19:41.554Z,6.40
2023-03-05T14:22:32.399Z,6.50
2023-03-05T14:25:02.040Z,6.60
2023-03-05T14:27:34.447Z,6.40
2023-03-05T14:30:07.519Z,6.20
2023-03-05T14:32:39.345Z,6.20
2023-03-05T14:35:16.954Z,6.30
2023-03-05T14:37:49.038Z,6.50
2023-03-05T14:40:15.779Z,6.40
2023-03-05T14:42:54.438Z,6.40
2023-03-05T14:45:43.486Z,6.30
2023-03-05T14:48:13.446Z,6.30
2023-03-05T14:50:46.904Z,6.20
2023-03-05T14:53:20.073Z,6.30
2023-03-05T14:55:53.628Z,6.40
2023-03-05T14:58:25.929Z,6.40
2023-03-05T15:00:56.759Z,6.40
2023-03-05T15:03:24.872Z,6.60
2023-03-05T15:05:56.344Z,6.50
2023-03-05T15:08:28.404Z,6.50
2023-03-05T15:10:55.945Z,6.50
2023-03-05T15:13:25.147Z,6.60
2023-03-05T15:15:55.547Z,6.60
2023-03-05T15:18:22.841Z,6.50
2023-03-05T15:20:56.825Z,6.70
2023-03-05T15:23:34.061Z,6.80
2023-03-05T15:26:05.309Z,6.70
2023-03-05T15:28:41.929Z,6.50
2023-03-05T15:31:09.085Z,6.50
2023-03-05T15:33:35.924Z,6.50
2023-03-05T15:36:02.962Z,6.40
2023-03-05T15:38:29.609Z,6.50
2023-03-05T15:40:56.457Z,6.40
2023-03-05T15:43:25.739Z,6.40
2023-03-05T15:45:52.423Z,6.30
2023-03-05T15:48:26.284Z,6.20
2023-03-05T15:50:52.957Z,6.20
2023-03-05T15:53:21.449Z,6.20
2023-03-05T15:55:52.555Z,6.20
2023-03-05T15:58:19.250Z,6.10
2023-03-05T16:00:49.295Z,6.20
2023-03-05T16:03:18.302Z,6.20
2023-03-05T16:05:45.044Z,6.10
2023-03-05T16:08:11.931Z,6.00
2023-03-05T16:10:40.799Z,6.00
2023-03-05T16:13:21.294Z,6.10
2023-03-05T16:15:52.843Z,5.90
2023-03-05T16:18:20.262Z,5.90
2023-03-05T16:20:49.277Z,5.90
2023-03-05T16:23:16.028Z,5.90
2023-03-05T16:25:45.228Z,6.00
2023-03-05T16:28:11.945Z,6.00
2023-03-05T16:30:41.144Z,6.00
2023-03-05T16:33:08.093Z,6.00
2023-03-05T16:35:34.811Z,5.90
2023-03-05T16:38:02.303Z,5.90
2023-03-05T16:40:56.633Z,5.80
2023-03-05T16:43:22.106Z,5.80
2023-03-05T16:45:48.743Z,5.80
2023-03-05T16:48:17.940Z,5.70
2023-03-05T16:50:49.434Z,5.70
2023-03-05T16:53:18.700Z,5.80
2023-03-05T16:55:47.797Z,5.70
2023-03-05T16:58:19.154Z,5.60
2023-03-05T17:00:48.920Z,5.60
2023-03-05T17:03:15.590Z,5.60
2023-03-05T17:05:42.650Z,5.60
2023-03-05T17:08:11.539Z,5.60
2023-03-05T17:10:40.373Z,5.50
2023-03-05T17:13:07.082Z,5.50
2023-03-05T17:15:34.024Z,5.50
2023-03-05T17:18:03.108Z,5.50
2023-03-05T17:20:35.401Z,5.40
2023-03-05T17:23:04.530Z,5.40
2023-03-05T17:25:33.877Z,5.40
2023-03-05T17:28:00.557Z,5.30
2023-03-05T17:30:31.310Z,5.40
2023-03-05T17:32:57.974Z,5.30
2023-03-05T17:35:24.864Z,5.30
2023-03-05T17:37:56.280Z,5.20
2023-03-05T17:40:25.087Z,5.20
2023-03-05T17:42:53.957Z,5.20
2023-03-05T17:45:23.140Z,5.30
2023-03-05T17:47:49.857Z,5.20
2023-03-05T17:50:16.759Z,5.20
2023-03-05T17:52:45.990Z,5.20
2023-03-05T17:55:14.872Z,5.20
2023-03-05T17:57:47.940Z,5.20
2023-03-05T18:00:33.608Z,5.10
2023-03-05T18:03:03.686Z,5.10
2023-03-05T18:05:30.844Z,5.10
2023-03-05T18:07:58.891Z,5.10
2023-03-05T18:10:27.240Z,5.10
2023-03-05T18:12:56.648Z,5.00
2023-03-05T18:15:24.830Z,5.00
2023-03-05T18:17:52.168Z,4.90
2023-03-05T18:20:27.072Z,4.90
2023-03-05T18:22:54.060Z,5.00
2023-03-05T18:25:21.920Z,5.00
2023-03-05T18:27:48.614Z,5.00
2023-03-05T18:30:18.113Z,5.00
2023-03-05T18:32:47.503Z,5.00
2023-03-05T18:35:14.413Z,4.90
2023-03-05T18:37:41.158Z,5.00
2023-03-05T18:40:19.466Z,4.80
2023-03-05T18:42:48.701Z,4.90
2023-03-05T18:45:19.670Z,4.90
2023-03-05T18:47:46.904Z,4.80
2023-03-05T18:50:18.385Z,4.80
2023-03-05T18:52:45.552Z,4.90
2023-03-05T18:55:19.156Z,4.90
2023-03-05T18:57:46.058Z,4.80
2023-03-05T19:00:15.115Z,4.70
2023-03-05T19:02:41.755Z,4.80
2023-03-05T19:05:11.781Z,4.80
2023-03-05T19:07:43.754Z,4.70
2023-03-05T19:10:12.298Z,4.80
2023-03-05T19:12:49.724Z,4.70
2023-03-05T19:15:18.962Z,4.80
2023-03-05T19:17:49.361Z,4.90
2023-03-05T19:20:18.021Z,4.80
2023-03-05T19:22:50.687Z,4.90
2023-03-05T19:25:18.313Z,4.90
2023-03-05T19:27:47.474Z,4.80
2023-03-05T19:30:16.136Z,4.80
2023-03-05T19:32:42.916Z,4.80
2023-03-05T19:35:13.802Z,4.80
2023-03-05T19:37:40.449Z,4.80
2023-03-05T19:40:10.173Z,4.80
2023-03-05T19:42:38.952Z,4.90
2023-03-05T19:45:06.927Z,4.80
2023-03-05T19:47:33.614Z,4.70
2023-03-05T19:50:00.353Z,4.70
2023-03-05T19:52:27.603Z,4.70
2023-03-05T19:54:54.332Z,4.70
2023-03-05T19:57:23.376Z,4.80
2023-03-05T19:59:53.596Z,4.80
2023-03-05T20:02:22.605Z,4.80
2023-03-05T20:04:52.087Z,4.80
2023-03-05T20:07:18.852Z,4.70
2023-03-05T20:09:45.575Z,4.80
2023-03-05T20:12:12.308Z,4.70
2023-03-05T20:14:41.185Z,4.70
2023-03-05T20:17:07.830Z,4.80
2023-03-05T20:19:34.690Z,4.80
2023-03-05T20:22:01.334Z,4.70
2023-03-05T20:24:36.079Z,4.80
2023-03-05T20:27:02.968Z,4.80
2023-03-05T20:29:31.931Z,4.70
2023-03-05T20:31:58.709Z,4.70
2023-03-05T20:34:26.962Z,4.70
2023-03-05T20:36:53.673Z,4.70
2023-03-05T20:39:22.692Z,4.70
2023-03-05T20:41:51.533Z,4.70
2023-03-05T20:44:18.196Z,4.70
2023-03-05T20:47:02.380Z,4.70
2023-03-05T20:49:29.140Z,4.70
2023-03-05T20:51:55.794Z,4.70
2023-03-05T20:54:23.895Z,4.70
2023-03-05T20:56:50.660Z,4.70
2023-03-05T20:59:17.597Z,4.60
2023-03-05T21:01:46.666Z,4.60
2023-03-05T21:04:13.422Z,4.70
2023-03-05T21:06:42.446Z,4.70
2023-03-05T21:09:11.296Z,4.70
2023-03-05T21:11:38.038Z,4.80
2023-03-05T21:14:06.972Z,4.80
2023-03-05T21:16:33.714Z,4.70
2023-03-05T21:19:00.500Z,4.70
2023-03-05T21:21:30.189Z,4.70
2023-03-05T21:23:59.400Z,4.70
2023-03-05T21:26:26.062Z,4.70
2023-03-05T21:28:52.689Z,4.70
2023-03-05T21:31:21.896Z,4.70
2023-03-05T21:33:49.385Z,4.70
2023-03-05T21:36:19.225Z,4.70
2023-03-05T21:38:49.545Z,4.80
2023-03-05T21:41:18.049Z,4.70
2023-03-05T21:43:47.129Z,4.70
2023-03-05T21:46:16.479Z,4.70
2023-03-05T21:48:45.319Z,4.60
2023-03-05T21:51:13.763Z,4.50
2023-03-05T21:53:40.427Z,4.50
2023-03-05T21:56:16.795Z,4.40
2023-03-05T21:58:46.181Z,4.40
2023-03-05T22:01:14.774Z,4.50
2023-03-05T22:03:41.488Z,4.50
2023-03-05T22:06:12.663Z,4.40
2023-03-05T22:08:39.337Z,4.40
2023-03-05T22:11:14.010Z,4.50
2023-03-05T22:13:43.430Z,4.40
2023-03-05T22:16:14.277Z,4.30
2023-03-05T22:18:40.957Z,4.20
2023-03-05T22:21:21.458Z,4.30
2023-03-05T22:23:48.417Z,4.20
2023-03-05T22:26:15.104Z,4.20
2023-03-05T22:28:44.203Z,4.20
2023-03-05T22:31:19.020Z,4.30
2023-03-05T22:33:45.843Z,4.30
2023-03-05T22:36:14.593Z,4.30
2023-03-05T22:38:42.588Z,4.30
2023-03-05T22:41:11.328Z,4.20
2023-03-05T22:43:40.751Z,4.20
2023-03-05T22:46:15.017Z,4.20
2023-03-05T22:48:44.798Z,4.20
2023-03-05T22:51:15.507Z,4.10
2023-03-05T22:53:45.292Z,4.20
2023-03-05T22:56:14.897Z,4.00
2023-03-05T22:58:44.862Z,4.00
2023-03-05T23:01:20.040Z,4.00
2023-03-05T23:03:53.135Z,4.00
2023-03-05T23:06:19.820Z,4.00
2023-03-05T23:08:48.771Z,4.00
2023-03-05T23:11:22.712Z,4.10
2023-03-05T23:13:51.558Z,4.10
2023-03-05T23:16:20.333Z,4.10
2023-03-05T23:18:49.333Z,3.90
2023-03-05T23:21:16.104Z,3.80
2023-03-05T23:23:42.756Z,3.90
2023-03-05T23:26:12.550Z,3.80
2023-03-05T23:28:41.739Z,3.70
2023-03-05T23:31:08.442Z,3.80
2023-03-05T23:33:37.933Z,3.70
2023-03-05T23:36:04.825Z,3.70
2023-03-05T23:38:31.558Z,3.60
2023-03-05T23:41:03.262Z,3.70
2023-03-05T23:43:32.152Z,3.80
2023-03-05T23:46:01.818Z,3.70
2023-03-05T23:48:29.546Z,3.80
2023-03-05T23:51:00.842Z,3.80
2023-03-05T23:53:29.569Z,3.80
2023-03-05T23:55:58.938Z,3.80
2023-03-05T23:58:25.780Z,3.80
